Maximilian Sabitzer

Scout - Red Bull Salzburg
29 Okt 2028
Sonntag
Verarbeitung

Persönlichkeit

Anpassungsfähigkeit (8) Ehrgeiz (14) Kontroverse (9) Loyalität (18) Druck (4) Professionalität (11) Fairness (8) Temperament (9)

Profil

Trainerstil Demokratisch
Lizenz Kontinentale A
Entschlossenheit 11
Menschenführung 11
Motivation 15
Disziplin 14
Arbeitszufriedenheit
33%
Ermüdung
0%
Rolle Scout
Gehalt 16.4K p/W
Vertrag 14.03.2029

Leistung

Verhalten Gut
Trainingseffektivität
19%
Spielerentwicklung
65%
Verletzungsprävention
75%
Taktische Umsetzung
45%

Letzte Ereignisse

Nahm an einer Scouting-Besprechung teil jetzt
Empfahl ein Transferziel jetzt
Empfahl ein Transferziel jetzt
Empfahl ein Transferziel jetzt
Empfahl ein Transferziel jetzt
Empfahl ein Transferziel jetzt
Spieler begutachtet jetzt
Spiel beobachtet jetzt

Aktuell beobachtet

74
Spieler Verein Status Fähigkeit Vertrauen Beobachtet Zuletzt beobachtet Letzte Stimme
Endrick Boca Juniors Aktiv 161 / 161 40% 2 28.10.2028 -
Joe Willock Newcastle United Aktiv 155 / 149 40% 1 28.10.2028 -
Carlos Alcaraz Stoke City Aktiv 157 / 165 40% 2 25.10.2028 -
Brenden Aaronson Internacional Aktiv 147 / 155 40% 1 25.10.2028 -
Tim Lemperle Bayern Munich Aktiv 152 / 160 40% 1 25.10.2028 -
Lewis Miley Newcastle United Aktiv 157 / 155 40% 1 20.10.2028 -
Neil El Aynaoui AS Roma Aktiv 158 / 149 40% 1 20.10.2028 -
Amadou Onana Aston Villa Aktiv 160 / 156 40% 2 15.10.2028 -
Juanlu Bournemouth Aktiv 156 / 153 40% 1 15.10.2028 -
Fábio Vieira Huddersfield Town Aktiv 156 / 150 40% 1 13.10.2028 -
Johan Manzambi Millwall Aktiv 151 / 150 40% 1 13.10.2028 -
Arnaud Kalimuendo Nottingham Forest Aktiv 153 / 159 40% 2 12.10.2028 -
Matt O'Riley Brighton Aktiv 157 / 164 40% 1 12.10.2028 -
Óscar Mingueza Crystal Palace Aktiv 157 / 161 40% 1 04.10.2028 -
Yehor Yarmoliuk Brentford Aktiv 154 / 169 40% 1 04.10.2028 -
Morgan Gibbs-White Chelsea Aktiv 159 / 162 40% 1 04.10.2028 -
Christopher Nkunku AC Milan Aktiv 163 / 157 40% 1 21.08.2028 -
Donyell Malen AS Roma Aktiv 160 / 157 40% 1 21.08.2028 -
Cucho Hernández Granada Aktiv 159 / 148 40% 1 15.08.2028 -
Brajan Gruda Brighton Aktiv 161 / 149 40% 1 15.08.2028 -
Dodo Fiorentina Verloren 158 / 166 40% 1 15.08.2028 -
Gianluca Scamacca Atalanta Aktiv 152 / 149 40% 2 31.07.2028 -
Marcus Rashford Manchester United Aktiv 164 / 167 40% 1 31.07.2028 -
Kelvin Boateng Austria Wien Aktiv 107 / 106 72% 1 17.07.2028 Befürworten
Babis Kostoulas Oxford United Aktiv 139 / 156 40% 1 11.07.2028 -
James Garner Everton Verloren 160 / 161 40% 1 11.07.2028 -
Gustav Isaksen Lazio Aktiv 151 / 154 40% 1 11.07.2028 -
Marlon Mustapha Austria Wien Verloren 120 / 109 72% 1 10.07.2028 Befürworten
Christian Pulisic AC Milan Aktiv 174 / 164 40% 2 08.07.2028 -
Loïs Openda Juventus Aktiv 153 / 160 40% 2 08.07.2028 -
Nick Woltemade Newcastle United Aktiv 160 / 168 40% 1 08.07.2028 -
Samu Aghehowa Udinese Aktiv 155 / 146 40% 1 02.07.2028 -
Darwin Núñez Al-Hilal Aktiv 147 / 165 40% 3 23.06.2028 -
Mikey Moore Stockport County Aktiv 133 / 142 40% 1 13.06.2028 -
Jeff Ekhator Juventus Aktiv 142 / 131 40% 1 13.06.2028 -
Jacob Peter Hödl Sturm Graz Aktiv 128 / 125 72% 1 03.06.2028 Befürworten
Marko Raguž Sturm Graz Aktiv 113 / 109 72% 1 02.06.2028 Befürworten
Boubacar Kamara Aston Villa Aktiv 174 / 167 40% 2 01.06.2028 -
Patrick Dorgu Bristol City Aktiv 153 / 140 40% 1 01.06.2028 -
Jarrad Branthwaite Everton Aktiv 158 / 170 40% 1 01.06.2028 -
Exequiel Palacios Lazio Verloren 161 / 169 40% 1 31.05.2028 -
Manu Koné AS Roma Aktiv 169 / 162 40% 1 31.05.2028 -
Lee Tae-Suk Austria Wien Verloren 129 / 133 69% 1 03.06.2027 Befürworten
Caoimhin Kelleher Brentford Aktiv 151 / 158 40% 1 31.05.2027 -
Leon Klanac Bayern Munich Aktiv 96 / 115 40% 5 29.05.2027 -
Gonçalo Ribeiro Porto Aktiv 101 / 96 40% 5 25.05.2027 -
Scott Twine Bristol City Aktiv 123 / 111 40% 2 25.05.2027 -
Isaiah Jones Luton Town Aktiv 123 / 122 40% 2 25.05.2027 -
Marcello Trippel Borussia Mönchengladbach Aktiv 96 / 103 40% 2 25.05.2027 -
Martin Baturina Como Aktiv 142 / 128 40% 1 25.05.2027 -
Thiago Parga Huracán Aktiv 83 / 99 40% 1 25.05.2027 -
Felipe Igón Racing Club Aktiv 97 / 109 40% 1 23.05.2027 -
Anthony Cletus Bendel Insurance Aktiv 94 / 84 40% 2 15.05.2027 -
Federico Bonilla River Plate Aktiv 91 / 102 40% 1 09.05.2027 -
Lautaro Herrera Estudiantes Aktiv 103 / 102 40% 2 05.05.2027 -
Jack Rudoni Coventry City Aktiv 141 / 138 40% 3 04.05.2027 -
Finn Azaz Southampton Aktiv 133 / 126 40% 1 04.05.2027 -
Rodrigo Gomes Wolverhampton Aktiv 147 / 139 40% 1 28.04.2027 -
Matías Zorzoli Newell's Old Boys Aktiv 94 / 100 40% 1 21.04.2027 -
Joe Gelhardt Hull City Aktiv 140 / 129 40% 1 17.04.2027 -
Tyrese Campbell Sheffield United Aktiv 133 / 130 40% 1 15.04.2027 -
Brooke Norton-Cuffy Hull City Aktiv 135 / 136 40% 1 15.04.2027 -
Florentino Luís Ipswich Town Aktiv 142 / 148 40% 1 15.04.2027 -
Mohamed-Ali Cho Hull City Aktiv 132 / 125 40% 1 13.04.2027 -
Luca Martelli Forli Aktiv 83 / 106 40% 3 07.04.2027 -
Ramiro Buratti River Plate Aktiv 85 / 105 40% 2 05.04.2027 -
Ikenna Nkwazema FC Diarra Aktiv 76 / 88 40% 1 05.04.2027 -
Diego Mina Luzern Aktiv 89 / 108 40% 2 02.04.2027 -
Fabricio Díaz San Lorenzo Aktiv 91 / 111 40% 1 29.03.2027 -
Ayoub Akabou Ceuta Aktiv 91 / 100 40% 1 26.03.2027 -
Jakub Badžgoň MSK Zilina Aktiv 103 / 95 40% 1 25.03.2027 -
Gerardo Díaz San Martín SJ Aktiv 88 / 108 40% 1 23.03.2027 -
Rene Renner Wolfsberger AC Aktiv 123 / 126 69% 1 31.08.2026 Befürworten
Cheick Mamadou Diabaté Wolfsberger AC Aktiv 121 / 113 69% 1 24.08.2026 Befürworten